Time;durP1;ratioP1;P1;durP2;ratioP2;P2;SDS_P1;SDS_P2;PMS_P1;PMS_P2;Temp;Humidity;BMP_temperature;BMP_pressure;BME280_temperature;BME280_humidity;BME280_pressure;Samples;Min_cycle;Max_cycle;Signal;HPM_P1;HPM_P2
2024/01/22 00:02:18;;;;;;;7.22;5.03;;;;;;;;;;5021351;28;20117;-76
2024/01/22 00:04:44;;;;;;;6.20;3.70;;;;;;;;;;5029430;28;20041;-76
2024/01/22 00:07:09;;;;;;;10.15;6.15;;;;;;;;;;5016930;28;20044;-76
2024/01/22 00:09:34;;;;;;;9.02;4.80;;;;;;;;;;5025971;28;20041;-76
2024/01/22 00:12:00;;;;;;;9.23;3.95;;;;;;;;;;5033211;28;20040;-76
2024/01/22 00:14:25;;;;;;;11.55;6.38;;;;;;;;;;5029485;28;20040;-76
2024/01/22 00:16:50;;;;;;;9.93;6.05;;;;;;;;;;5035330;28;20591;-77
2024/01/22 00:19:16;;;;;;;8.48;4.68;;;;;;;;;;5030872;28;20437;-76
2024/01/22 00:21:44;;;;;;;10.35;6.32;;;;;;;;;;5025283;28;20033;-77
2024/01/22 00:24:09;;;;;;;9.13;4.88;;;;;;;;;;5038130;28;20552;-77
2024/01/22 00:26:35;;;;;;;8.00;4.25;;;;;;;;;;5030342;28;20589;-77
2024/01/22 00:29:00;;;;;;;12.65;7.65;;;;;;;;;;5018568;28;20033;-76
2024/01/22 00:31:26;;;;;;;8.82;6.05;;;;;;;;;;5033272;28;20437;-77
2024/01/22 00:33:51;;;;;;;7.00;4.28;;;;;;;;;;5032970;28;20025;-77
2024/01/22 00:36:16;;;;;;;11.20;4.97;;;;;;;;;;5023867;28;20059;-77
2024/01/22 00:38:42;;;;;;;8.57;5.25;;;;;;;;;;5034804;28;20045;-77
2024/01/22 00:41:08;;;;;;;5.85;4.65;;;;;;;;;;5031100;28;20043;-76
2024/01/22 00:43:34;;;;;;;8.77;4.32;;;;;;;;;;5015615;28;20554;-77
2024/01/22 00:46:03;;;;;;;12.23;5.97;;;;;;;;;;5027410;28;20040;-77
2024/01/22 00:48:28;;;;;;;10.98;4.00;;;;;;;;;;5025228;28;20033;-78
2024/01/22 00:50:54;;;;;;;5.80;4.10;;;;;;;;;;5017834;28;20056;-77
2024/01/22 00:53:19;;;;;;;6.78;3.60;;;;;;;;;;5035030;28;20048;-78
2024/01/22 00:55:45;;;;;;;9.98;5.35;;;;;;;;;;5031965;28;20116;-77
2024/01/22 00:58:10;;;;;;;10.25;6.07;;;;;;;;;;5031167;28;20109;-78
2024/01/22 01:00:35;;;;;;;11.80;5.47;;;;;;;;;;5027078;28;20066;-77
2024/01/22 01:03:01;;;;;;;11.50;6.80;;;;;;;;;;5029186;28;20691;-77
2024/01/22 01:05:26;;;;;;;6.72;5.07;;;;;;;;;;5013122;28;20091;-77
2024/01/22 01:07:52;;;;;;;8.25;5.07;;;;;;;;;;5029187;28;20124;-78
2024/01/22 01:10:17;;;;;;;8.65;6.60;;;;;;;;;;5032459;28;20425;-77
2024/01/22 01:12:42;;;;;;;6.80;4.65;;;;;;;;;;5021589;28;20044;-78
2024/01/22 01:15:09;;;;;;;10.70;5.07;;;;;;;;;;5034741;28;20037;-78
2024/01/22 01:17:35;;;;;;;13.05;4.85;;;;;;;;;;5026593;28;20068;-78
2024/01/22 01:20:03;;;;;;;5.47;3.70;;;;;;;;;;5018710;28;20041;-77
2024/01/22 01:22:29;;;;;;;10.93;5.57;;;;;;;;;;5009007;28;20490;-80
2024/01/22 01:24:54;;;;;;;8.00;3.97;;;;;;;;;;5017883;28;20171;-79
2024/01/22 01:27:20;;;;;;;10.30;6.38;;;;;;;;;;5028086;28;20080;-79
2024/01/22 01:29:45;;;;;;;4.63;3.15;;;;;;;;;;5026047;28;20033;-79
2024/01/22 01:32:10;;;;;;;9.40;4.88;;;;;;;;;;5029915;28;20098;-78
2024/01/22 01:34:36;;;;;;;11.25;6.10;;;;;;;;;;5010269;28;20046;-79
2024/01/22 01:37:02;;;;;;;7.72;4.70;;;;;;;;;;5034343;28;20492;-78
2024/01/22 01:39:27;;;;;;;10.73;7.70;;;;;;;;;;5034172;28;20037;-78
2024/01/22 01:41:52;;;;;;;9.93;5.53;;;;;;;;;;5033592;28;20033;-78
2024/01/22 01:44:18;;;;;;;13.23;6.53;;;;;;;;;;5033135;28;20067;-78
2024/01/22 01:46:44;;;;;;;9.82;5.35;;;;;;;;;;5037991;28;20128;-79
2024/01/22 01:49:09;;;;;;;7.70;5.60;;;;;;;;;;5028038;28;20057;-78
2024/01/22 01:51:36;;;;;;;10.38;5.85;;;;;;;;;;5032053;28;20080;-77
2024/01/22 01:54:05;;;;;;;10.85;6.53;;;;;;;;;;5017649;28;20061;-78
2024/01/22 01:56:31;;;;;;;8.52;4.93;;;;;;;;;;5031545;28;20419;-78
2024/01/22 01:58:57;;;;;;;5.15;3.28;;;;;;;;;;5025540;28;20025;-78
2024/01/22 02:01:22;;;;;;;5.63;3.55;;;;;;;;;;5015281;28;20061;-78
2024/01/22 02:03:48;;;;;;;3.60;2.63;;;;;;;;;;5023979;28;20041;-77
2024/01/22 02:06:13;;;;;;;6.75;4.10;;;;;;;;;;5033884;28;20121;-77
2024/01/22 02:08:38;;;;;;;7.00;4.28;;;;;;;;;;5021836;28;20328;-77
2024/01/22 02:11:04;;;;;;;6.68;4.97;;;;;;;;;;5033743;28;20045;-78
2024/01/22 02:13:30;;;;;;;9.55;5.28;;;;;;;;;;5032674;28;20045;-78
2024/01/22 02:15:55;;;;;;;6.70;3.78;;;;;;;;;;5033277;28;20033;-78
2024/01/22 02:18:20;;;;;;;6.97;3.55;;;;;;;;;;5034263;28;20434;-78
2024/01/22 02:20:46;;;;;;;12.73;6.90;;;;;;;;;;5019612;28;20037;-78
2024/01/22 02:23:11;;;;;;;10.75;6.03;;;;;;;;;;5042954;28;20039;-78
2024/01/22 02:25:36;;;;;;;8.48;4.68;;;;;;;;;;5034995;28;20798;-77
2024/01/22 02:28:02;;;;;;;10.93;4.22;;;;;;;;;;5040961;28;20053;-78
2024/01/22 02:30:27;;;;;;;7.75;4.35;;;;;;;;;;5025760;28;20162;-78
2024/01/22 02:32:53;;;;;;;8.43;4.28;;;;;;;;;;5029060;28;20047;-77
2024/01/22 02:35:18;;;;;;;8.80;5.47;;;;;;;;;;5031708;28;20134;-77
2024/01/22 02:37:44;;;;;;;7.22;3.47;;;;;;;;;;5038323;28;20029;-77
2024/01/22 02:40:10;;;;;;;3.20;2.45;;;;;;;;;;5041878;28;20072;-77
2024/01/22 02:42:35;;;;;;;7.90;5.00;;;;;;;;;;5036800;28;20071;-79
2024/01/22 02:45:01;;;;;;;2.97;2.17;;;;;;;;;;5027629;28;20144;-79
2024/01/22 02:47:26;;;;;;;3.17;2.42;;;;;;;;;;5039985;28;20073;-79
2024/01/22 02:49:52;;;;;;;5.68;3.70;;;;;;;;;;5033998;28;20576;-79
2024/01/22 02:52:17;;;;;;;5.65;4.57;;;;;;;;;;5023440;28;20045;-77
2024/01/22 02:54:43;;;;;;;5.78;3.85;;;;;;;;;;5028489;28;20037;-78
2024/01/22 02:57:10;;;;;;;9.50;4.25;;;;;;;;;;5028546;28;20117;-78
2024/01/22 02:59:36;;;;;;;8.55;3.50;;;;;;;;;;5034109;28;20062;-78
2024/01/22 03:02:03;;;;;;;5.88;3.88;;;;;;;;;;5033186;28;20045;-78
2024/01/22 03:04:28;;;;;;;6.95;3.88;;;;;;;;;;5038131;28;20045;-78
2024/01/22 03:06:54;;;;;;;8.20;3.92;;;;;;;;;;5038264;28;20039;-77
2024/01/22 03:09:20;;;;;;;6.55;3.88;;;;;;;;;;5039815;28;20047;-80
2024/01/22 03:11:45;;;;;;;7.53;3.47;;;;;;;;;;5038865;28;20033;-77
2024/01/22 03:14:11;;;;;;;4.38;2.30;;;;;;;;;;5041919;28;20051;-80
2024/01/22 03:16:36;;;;;;;10.48;4.68;;;;;;;;;;5030662;28;20039;-79
2024/01/22 03:19:01;;;;;;;9.77;4.57;;;;;;;;;;5030391;28;20037;-81
2024/01/22 03:21:27;;;;;;;3.78;1.80;;;;;;;;;;5024533;28;20041;-79
2024/01/22 03:23:52;;;;;;;8.63;4.20;;;;;;;;;;5035437;28;20033;-76
2024/01/22 03:26:22;;;;;;;5.55;3.03;;;;;;;;;;5029622;28;20112;-80
2024/01/22 03:28:49;;;;;;;3.45;2.42;;;;;;;;;;5024824;28;20036;-79
2024/01/22 03:31:28;;;;;;;6.97;2.83;;;;;;;;;;5037981;28;20047;-79
2024/01/22 03:33:54;;;;;;;4.18;2.50;;;;;;;;;;5043875;28;20112;-78
2024/01/22 03:36:23;;;;;;;5.88;3.67;;;;;;;;;;5036042;28;20049;-79
2024/01/22 03:38:48;;;;;;;7.28;2.95;;;;;;;;;;5037748;28;20028;-78
2024/01/22 03:41:14;;;;;;;7.88;3.78;;;;;;;;;;5018369;28;20037;-77
2024/01/22 03:43:43;;;;;;;9.68;2.38;;;;;;;;;;5041949;28;20054;-78
2024/01/22 03:46:12;;;;;;;2.63;2.05;;;;;;;;;;5027771;28;20068;-77
2024/01/22 03:48:39;;;;;;;4.28;2.63;;;;;;;;;;5029601;28;20723;-77
2024/01/22 03:51:04;;;;;;;6.13;3.80;;;;;;;;;;5025587;28;20057;-78
2024/01/22 03:53:30;;;;;;;4.10;2.65;;;;;;;;;;5032300;28;20049;-77
2024/01/22 03:55:55;;;;;;;5.72;2.90;;;;;;;;;;5040488;28;20037;-77
2024/01/22 03:58:21;;;;;;;3.40;2.03;;;;;;;;;;5034545;28;20036;-77
2024/01/22 04:00:46;;;;;;;2.60;1.92;;;;;;;;;;5031501;28;20041;-77
2024/01/22 04:03:11;;;;;;;6.22;3.05;;;;;;;;;;5021264;28;20123;-77
2024/01/22 04:05:37;;;;;;;3.95;2.22;;;;;;;;;;5040707;28;20212;-76
2024/01/22 04:08:03;;;;;;;4.20;2.67;;;;;;;;;;5023102;28;20037;-78
2024/01/22 04:10:28;;;;;;;3.00;2.00;;;;;;;;;;5020865;28;20048;-77
2024/01/22 04:12:55;;;;;;;2.80;2.15;;;;;;;;;;5028267;28;20044;-78
2024/01/22 04:15:20;;;;;;;4.07;2.88;;;;;;;;;;5030328;28;20088;-77
2024/01/22 04:17:46;;;;;;;3.30;1.65;;;;;;;;;;5034086;28;20041;-77
2024/01/22 04:20:11;;;;;;;5.47;2.42;;;;;;;;;;5026379;28;20083;-78
2024/01/22 04:22:37;;;;;;;3.67;2.10;;;;;;;;;;5016875;28;20040;-78
2024/01/22 04:25:03;;;;;;;3.30;2.20;;;;;;;;;;5030949;28;20037;-77
2024/01/22 04:27:28;;;;;;;3.10;2.05;;;;;;;;;;5039204;28;20040;-76
2024/01/22 04:29:54;;;;;;;2.92;1.60;;;;;;;;;;5033320;28;20132;-76
2024/01/22 04:32:19;;;;;;;5.43;2.60;;;;;;;;;;5024500;28;20832;-77
2024/01/22 04:34:46;;;;;;;3.17;1.73;;;;;;;;;;5027008;28;20076;-76
2024/01/22 04:37:12;;;;;;;4.35;1.95;;;;;;;;;;5014710;28;20488;-77
2024/01/22 04:39:39;;;;;;;4.82;1.77;;;;;;;;;;5040095;28;20056;-76
2024/01/22 04:42:05;;;;;;;3.03;1.55;;;;;;;;;;5022989;28;20035;-77
2024/01/22 04:44:30;;;;;;;2.75;1.55;;;;;;;;;;5020518;28;20037;-77
2024/01/22 04:46:56;;;;;;;3.60;2.58;;;;;;;;;;5026104;28;20046;-76
2024/01/22 04:49:22;;;;;;;3.17;1.50;;;;;;;;;;5038319;28;20135;-76
2024/01/22 04:51:48;;;;;;;2.63;2.13;;;;;;;;;;5022774;28;20124;-78
2024/01/22 04:54:13;;;;;;;3.95;2.00;;;;;;;;;;5018616;28;20088;-78
2024/01/22 04:56:44;;;;;;;5.07;1.60;;;;;;;;;;5030711;28;20508;-77
2024/01/22 04:59:09;;;;;;;4.05;1.77;;;;;;;;;;5036177;28;20072;-78
2024/01/22 05:01:35;;;;;;;1.77;1.10;;;;;;;;;;5038357;28;20032;-78
2024/01/22 05:04:00;;;;;;;2.60;1.65;;;;;;;;;;5021328;28;20452;-77
2024/01/22 05:06:25;;;;;;;1.73;1.25;;;;;;;;;;5024591;28;20112;-78
2024/01/22 05:08:51;;;;;;;3.28;1.52;;;;;;;;;;5029256;28;20040;-75
2024/01/22 05:11:16;;;;;;;4.10;2.10;;;;;;;;;;5037412;28;20683;-77
2024/01/22 05:13:54;;;;;;;3.97;1.27;;;;;;;;;;5036230;28;20143;-77
2024/01/22 05:16:21;;;;;;;3.55;1.88;;;;;;;;;;5028585;28;20045;-77
2024/01/22 05:18:48;;;;;;;2.83;1.67;;;;;;;;;;5023833;28;20098;-78
2024/01/22 05:21:14;;;;;;;3.88;1.58;;;;;;;;;;5040168;28;20033;-78
2024/01/22 05:23:40;;;;;;;2.28;1.30;;;;;;;;;;5040475;28;20051;-78
2024/01/22 05:26:06;;;;;;;2.60;1.60;;;;;;;;;;5028773;28;20029;-78
2024/01/22 05:28:31;;;;;;;1.33;1.23;;;;;;;;;;5026666;28;20531;-77
2024/01/22 05:30:57;;;;;;;4.88;1.80;;;;;;;;;;5028137;28;20116;-77
2024/01/22 05:33:22;;;;;;;3.55;1.85;;;;;;;;;;5004363;28;20037;-75
2024/01/22 05:35:48;;;;;;;3.50;1.58;;;;;;;;;;5033530;28;20033;-76
2024/01/22 05:38:14;;;;;;;2.85;1.30;;;;;;;;;;5029463;28;20047;-77
2024/01/22 05:40:40;;;;;;;3.60;1.55;;;;;;;;;;5023243;28;20120;-76
2024/01/22 05:43:05;;;;;;;2.45;1.00;;;;;;;;;;5041499;28;20143;-76
2024/01/22 05:45:31;;;;;;;1.27;1.17;;;;;;;;;;5037121;28;20045;-75
2024/01/22 05:47:56;;;;;;;2.97;1.67;;;;;;;;;;5009835;28;20053;-74
2024/01/22 05:50:21;;;;;;;2.85;1.50;;;;;;;;;;5034247;28;20045;-75
2024/01/22 05:52:47;;;;;;;1.38;0.80;;;;;;;;;;5034408;28;20658;-75
2024/01/22 05:55:13;;;;;;;1.77;1.40;;;;;;;;;;5029879;28;20040;-75
2024/01/22 05:57:38;;;;;;;3.45;1.48;;;;;;;;;;5038256;28;20049;-75
2024/01/22 06:00:09;;;;;;;3.00;1.80;;;;;;;;;;5031153;28;20041;-76
2024/01/22 06:02:35;;;;;;;2.83;1.08;;;;;;;;;;5007785;28;20069;-74
2024/01/22 06:05:01;;;;;;;1.38;0.82;;;;;;;;;;5037715;28;20451;-77
2024/01/22 06:07:26;;;;;;;2.55;1.45;;;;;;;;;;5040399;28;20124;-77
2024/01/22 06:09:52;;;;;;;1.38;1.02;;;;;;;;;;5026052;28;20041;-76
2024/01/22 06:12:17;;;;;;;3.15;1.50;;;;;;;;;;5035964;28;20033;-74
2024/01/22 06:14:43;;;;;;;1.70;1.20;;;;;;;;;;5040050;28;20044;-74
2024/01/22 06:17:09;;;;;;;1.45;1.27;;;;;;;;;;5033806;28;20041;-74
2024/01/22 06:19:35;;;;;;;1.85;1.08;;;;;;;;;;5039007;28;20504;-75
2024/01/22 06:22:00;;;;;;;2.60;1.55;;;;;;;;;;5018423;28;20116;-74
2024/01/22 06:24:25;;;;;;;3.20;1.30;;;;;;;;;;5040438;28;20123;-74
2024/01/22 06:26:51;;;;;;;2.63;1.45;;;;;;;;;;5042411;28;20566;-74
2024/01/22 06:29:16;;;;;;;2.55;1.30;;;;;;;;;;5028622;28;20045;-74
2024/01/22 06:31:41;;;;;;;4.15;1.70;;;;;;;;;;5018423;28;20049;-75
2024/01/22 06:34:07;;;;;;;2.20;1.58;;;;;;;;;;5030310;28;20072;-74
2024/01/22 06:36:32;;;;;;;2.10;1.13;;;;;;;;;;5025799;28;20098;-74
2024/01/22 06:38:58;;;;;;;1.45;1.10;;;;;;;;;;5031480;28;20096;-73
2024/01/22 06:41:25;;;;;;;1.77;1.02;;;;;;;;;;5032101;28;20126;-74
2024/01/22 06:43:50;;;;;;;2.53;1.40;;;;;;;;;;5017673;28;20082;-75
2024/01/22 06:46:16;;;;;;;1.17;1.08;;;;;;;;;;5017888;28;20441;-75
2024/01/22 06:48:41;;;;;;;2.10;1.02;;;;;;;;;;5034754;28;20559;-73
2024/01/22 06:51:08;;;;;;;1.77;1.27;;;;;;;;;;5043190;28;20037;-74
2024/01/22 06:53:34;;;;;;;2.20;1.40;;;;;;;;;;5018887;28;20048;-73
2024/01/22 06:55:59;;;;;;;1.98;1.10;;;;;;;;;;5029071;28;20075;-74
2024/01/22 06:58:25;;;;;;;4.40;1.40;;;;;;;;;;5025209;28;20675;-73
2024/01/22 07:00:51;;;;;;;2.90;1.27;;;;;;;;;;5029503;28;20122;-74
2024/01/22 07:03:17;;;;;;;1.60;1.10;;;;;;;;;;5033138;28;20095;-73
2024/01/22 07:05:42;;;;;;;1.20;0.73;;;;;;;;;;5027179;28;20037;-73
2024/01/22 07:08:07;;;;;;;2.38;1.10;;;;;;;;;;5034171;28;20404;-74
2024/01/22 07:10:33;;;;;;;2.00;1.40;;;;;;;;;;5030951;28;20052;-73
2024/01/22 07:12:58;;;;;;;4.00;1.63;;;;;;;;;;5028405;28;20045;-73
2024/01/22 07:15:24;;;;;;;4.35;1.63;;;;;;;;;;5008629;28;20095;-74
2024/01/22 07:17:50;;;;;;;1.75;1.30;;;;;;;;;;5034634;28;20546;-75
2024/01/22 07:20:15;;;;;;;1.25;1.10;;;;;;;;;;5032897;28;20051;-76
2024/01/22 07:22:44;;;;;;;2.25;1.10;;;;;;;;;;5038462;28;20071;-75
2024/01/22 07:25:10;;;;;;;5.80;1.95;;;;;;;;;;5032500;28;20049;-75
2024/01/22 07:27:39;;;;;;;2.47;1.30;;;;;;;;;;5021006;28;20043;-76
2024/01/22 07:30:11;;;;;;;3.13;1.38;;;;;;;;;;5016747;28;20048;-75
2024/01/22 07:32:38;;;;;;;2.33;0.95;;;;;;;;;;5038379;28;20044;-75
2024/01/22 07:35:09;;;;;;;4.13;1.80;;;;;;;;;;5040041;28;20041;-75
2024/01/22 07:37:41;;;;;;;1.15;1.05;;;;;;;;;;5026035;28;20041;-76
2024/01/22 07:40:09;;;;;;;;;;;;;;;;;;5009619;28;20040;-75
2024/01/22 07:42:35;;;;;;;3.00;1.63;;;;;;;;;;5031779;28;19913;-75
2024/01/22 07:45:05;;;;;;;2.08;1.35;;;;;;;;;;5016327;28;20048;-76
2024/01/22 07:47:32;;;;;;;1.65;1.15;;;;;;;;;;5015054;28;20046;-75
2024/01/22 07:49:58;;;;;;;4.50;1.33;;;;;;;;;;5015609;28;20049;-76
2024/01/22 07:52:23;;;;;;;0.80;0.70;;;;;;;;;;5021832;28;20049;-76
2024/01/22 07:54:49;;;;;;;2.28;1.02;;;;;;;;;;5011111;28;20030;-76
2024/01/22 07:57:15;;;;;;;1.42;0.82;;;;;;;;;;5022123;28;20406;-75
2024/01/22 07:59:41;;;;;;;2.90;1.50;;;;;;;;;;5020184;28;20147;-75
2024/01/22 08:02:06;;;;;;;1.85;1.35;;;;;;;;;;5035632;28;20111;-75
2024/01/22 08:04:33;;;;;;;0.75;0.75;;;;;;;;;;4996168;28;20041;-75
2024/01/22 08:07:00;;;;;;;1.35;0.93;;;;;;;;;;5029898;28;20041;-75
2024/01/22 08:09:26;;;;;;;1.70;1.13;;;;;;;;;;5021691;28;20060;-75
2024/01/22 08:11:51;;;;;;;1.40;0.95;;;;;;;;;;5022973;28;20504;-75
2024/01/22 08:14:17;;;;;;;0.88;0.88;;;;;;;;;;5024827;28;20048;-75
2024/01/22 08:16:44;;;;;;;2.38;1.40;;;;;;;;;;5022903;28;20041;-75
2024/01/22 08:19:09;;;;;;;2.83;1.42;;;;;;;;;;5030044;28;20038;-75
2024/01/22 08:21:35;;;;;;;1.40;1.30;;;;;;;;;;5025582;28;20037;-75
2024/01/22 08:24:00;;;;;;;1.52;0.95;;;;;;;;;;5037645;28;20037;-75
2024/01/22 08:26:25;;;;;;;3.03;1.23;;;;;;;;;;5035991;28;20065;-75
2024/01/22 08:28:51;;;;;;;1.73;0.93;;;;;;;;;;5032404;28;20041;-75
2024/01/22 08:31:16;;;;;;;0.85;0.75;;;;;;;;;;5036917;28;20048;-75
2024/01/22 08:33:42;;;;;;;2.40;1.10;;;;;;;;;;5034834;28;20048;-75
2024/01/22 08:36:07;;;;;;;2.45;0.95;;;;;;;;;;5033525;28;20037;-75
2024/01/22 08:38:33;;;;;;;0.80;0.80;;;;;;;;;;5027395;28;20064;-75
2024/01/22 08:40:59;;;;;;;0.70;0.50;;;;;;;;;;5033718;28;20103;-75
2024/01/22 08:43:24;;;;;;;8.23;1.65;;;;;;;;;;5040813;28;20029;-76
2024/01/22 08:45:50;;;;;;;1.70;1.00;;;;;;;;;;5033445;28;20045;-75
2024/01/22 08:48:15;;;;;;;0.90;0.82;;;;;;;;;;5038388;28;20044;-75
2024/01/22 08:50:41;;;;;;;0.82;0.60;;;;;;;;;;5024259;28;20531;-75
2024/01/22 08:53:06;;;;;;;0.93;0.85;;;;;;;;;;5034723;28;20426;-75
2024/01/22 08:55:31;;;;;;;2.15;0.80;;;;;;;;;;5037017;28;20041;-75
2024/01/22 08:57:57;;;;;;;1.30;0.60;;;;;;;;;;5036232;28;20067;-75
2024/01/22 09:00:23;;;;;;;0.65;0.65;;;;;;;;;;5034602;28;20072;-75
2024/01/22 09:02:49;;;;;;;0.70;0.70;;;;;;;;;;5023116;28;20434;-75
2024/01/22 09:05:15;;;;;;;2.92;0.80;;;;;;;;;;5024443;28;20040;-75
2024/01/22 09:07:41;;;;;;;0.68;0.55;;;;;;;;;;5041256;28;20045;-76
2024/01/22 09:10:07;;;;;;;1.02;0.75;;;;;;;;;;5033429;28;20060;-75
2024/01/22 09:12:36;;;;;;;1.60;0.63;;;;;;;;;;5031561;28;20045;-75
2024/01/22 09:15:05;;;;;;;1.83;0.90;;;;;;;;;;5034897;28;20040;-75
2024/01/22 09:17:31;;;;;;;2.22;1.02;;;;;;;;;;5035895;28;20128;-76
2024/01/22 09:19:57;;;;;;;1.55;0.90;;;;;;;;;;5024921;28;20115;-75
2024/01/22 09:22:23;;;;;;;1.38;0.80;;;;;;;;;;5032025;28;20114;-75
2024/01/22 09:24:49;;;;;;;1.17;0.90;;;;;;;;;;5028485;28;20041;-75
2024/01/22 09:27:14;;;;;;;0.85;0.85;;;;;;;;;;5041897;28;20528;-75
2024/01/22 09:29:41;;;;;;;1.05;0.80;;;;;;;;;;5037377;28;20037;-75
2024/01/22 09:32:07;;;;;;;1.35;0.80;;;;;;;;;;5035280;28;20107;-76
2024/01/22 09:34:32;;;;;;;1.65;0.63;;;;;;;;;;5022605;28;20374;-75
2024/01/22 09:36:58;;;;;;;1.05;0.80;;;;;;;;;;5030619;28;20103;-75
2024/01/22 09:39:23;;;;;;;2.47;0.70;;;;;;;;;;5029515;28;20045;-75
2024/01/22 09:41:51;;;;;;;0.85;0.80;;;;;;;;;;5032704;28;20711;-75
2024/01/22 09:44:16;;;;;;;1.10;1.00;;;;;;;;;;5032342;28;20777;-75
2024/01/22 09:46:42;;;;;;;1.92;0.77;;;;;;;;;;5026189;28;20042;-75
2024/01/22 09:49:09;;;;;;;2.20;1.00;;;;;;;;;;5023977;28;20121;-75
2024/01/22 09:51:34;;;;;;;0.70;0.70;;;;;;;;;;5028036;28;20064;-76
2024/01/22 09:54:06;;;;;;;1.50;1.00;;;;;;;;;;5034757;28;20749;-75
2024/01/22 09:56:32;;;;;;;4.10;2.17;;;;;;;;;;5029057;28;20041;-75
2024/01/22 09:59:02;;;;;;;2.42;1.67;;;;;;;;;;5030930;28;20063;-75
2024/01/22 10:01:27;;;;;;;1.70;0.70;;;;;;;;;;5014782;28;20041;-75
2024/01/22 10:03:53;;;;;;;0.65;0.50;;;;;;;;;;5033128;28;20040;-75
2024/01/22 10:06:21;;;;;;;1.25;0.65;;;;;;;;;;5027627;28;20044;-75
2024/01/22 10:08:58;;;;;;;2.10;1.15;;;;;;;;;;5025344;28;20041;-75
2024/01/22 10:11:25;;;;;;;2.80;1.17;;;;;;;;;;5029996;28;20135;-75
2024/01/22 10:13:50;;;;;;;1.05;0.98;;;;;;;;;;5020149;28;20048;-75
2024/01/22 10:16:16;;;;;;;0.65;0.63;;;;;;;;;;5030037;28;21755;-75
2024/01/22 10:19:04;;;;;;;2.38;0.70;;;;;;;;;;5030571;28;20041;-75
2024/01/22 10:21:30;;;;;;;0.50;0.50;;;;;;;;;;5031542;28;20064;-75
2024/01/22 10:24:00;;;;;;;0.52;0.52;;;;;;;;;;5031864;28;20127;-75
2024/01/22 10:26:26;;;;;;;0.80;0.60;;;;;;;;;;5021750;28;20575;-75
2024/01/22 10:28:52;;;;;;;3.45;1.95;;;;;;;;;;5033228;28;20111;-75
2024/01/22 10:31:18;;;;;;;2.08;1.08;;;;;;;;;;5033063;28;20041;-75
2024/01/22 10:33:45;;;;;;;1.33;0.90;;;;;;;;;;5031306;28;20029;-75
2024/01/22 10:36:19;;;;;;;2.03;1.17;;;;;;;;;;5037382;28;20043;-75
2024/01/22 10:38:47;;;;;;;2.78;1.00;;;;;;;;;;5026515;28;20521;-75
2024/01/22 10:41:20;;;;;;;2.65;1.10;;;;;;;;;;5017895;28;20486;-75
2024/01/22 10:43:46;;;;;;;3.13;1.08;;;;;;;;;;5030804;28;20136;-75
2024/01/22 10:46:12;;;;;;;1.70;1.35;;;;;;;;;;5036949;28;20063;-75
2024/01/22 10:48:38;;;;;;;0.55;0.50;;;;;;;;;;5031315;28;20476;-76
2024/01/22 10:51:05;;;;;;;1.00;0.80;;;;;;;;;;5034919;28;20116;-75
2024/01/22 10:53:32;;;;;;;0.43;0.43;;;;;;;;;;5020161;28;20052;-75
2024/01/22 10:55:59;;;;;;;1.05;0.80;;;;;;;;;;5033642;28;20094;-75
2024/01/22 10:58:29;;;;;;;1.30;0.90;;;;;;;;;;5036909;28;20036;-75
2024/01/22 11:01:01;;;;;;;1.77;1.00;;;;;;;;;;5035707;28;20037;-75
2024/01/22 11:03:28;;;;;;;2.88;1.83;;;;;;;;;;5031268;28;20048;-75
2024/01/22 11:05:58;;;;;;;0.93;0.80;;;;;;;;;;5005117;28;20068;-75
2024/01/22 11:08:27;;;;;;;1.30;0.60;;;;;;;;;;5026992;28;20034;-76
2024/01/22 11:10:55;;;;;;;1.23;0.70;;;;;;;;;;5028985;28;20068;-75
2024/01/22 11:13:20;;;;;;;3.60;1.00;;;;;;;;;;5012502;28;20045;-75
2024/01/22 11:15:46;;;;;;;0.93;0.77;;;;;;;;;;5027073;28;20091;-75
2024/01/22 11:18:12;;;;;;;3.30;0.82;;;;;;;;;;5026482;28;20540;-75
2024/01/22 11:20:38;;;;;;;1.00;0.68;;;;;;;;;;5014252;28;20033;-75
2024/01/22 11:23:12;;;;;;;1.00;0.73;;;;;;;;;;5024487;28;20183;-75
2024/01/22 11:25:38;;;;;;;2.80;1.20;;;;;;;;;;5033549;28;20025;-75
2024/01/22 11:28:07;;;;;;;1.40;0.50;;;;;;;;;;5031660;28;20082;-75
2024/01/22 11:30:36;;;;;;;0.85;0.70;;;;;;;;;;5031014;28;20545;-75
2024/01/22 11:33:01;;;;;;;0.88;0.77;;;;;;;;;;5022018;28;20044;-75
2024/01/22 11:35:37;;;;;;;2.67;1.00;;;;;;;;;;5031428;28;20096;-75
2024/01/22 11:38:04;;;;;;;1.92;1.00;;;;;;;;;;5032437;28;20029;-75
2024/01/22 11:40:49;;;;;;;2.72;0.70;;;;;;;;;;5032984;28;20033;-75
2024/01/22 11:43:21;;;;;;;2.55;1.00;;;;;;;;;;5016682;28;20076;-75
2024/01/22 11:45:51;;;;;;;4.10;1.38;;;;;;;;;;5022412;28;20041;-75
2024/01/22 11:48:19;;;;;;;1.38;1.00;;;;;;;;;;5024133;28;20116;-75
2024/01/22 11:50:58;;;;;;;0.80;0.52;;;;;;;;;;5029027;28;20515;-75
2024/01/22 11:53:23;;;;;;;1.17;0.63;;;;;;;;;;5032955;28;20421;-75
2024/01/22 11:56:02;;;;;;;4.10;0.98;;;;;;;;;;5016975;28;20100;-76
2024/01/22 11:58:28;;;;;;;3.30;1.05;;;;;;;;;;5027679;28;20095;-75
2024/01/22 12:00:54;;;;;;;1.00;0.65;;;;;;;;;;5018951;28;20411;-75
2024/01/22 12:03:26;;;;;;;3.22;1.05;;;;;;;;;;5031680;28;20102;-75
2024/01/22 12:06:04;;;;;;;1.45;0.75;;;;;;;;;;5031240;28;20124;-75
2024/01/22 12:08:31;;;;;;;0.80;0.80;;;;;;;;;;5005953;28;20765;-75
2024/01/22 12:11:12;;;;;;;0.98;0.80;;;;;;;;;;5024160;28;20060;-75
2024/01/22 12:13:40;;;;;;;3.03;1.00;;;;;;;;;;5033218;28;20047;-75
2024/01/22 12:16:16;;;;;;;1.58;1.00;;;;;;;;;;5036620;28;20037;-76
2024/01/22 12:18:42;;;;;;;2.58;0.98;;;;;;;;;;5022497;28;20037;-75
2024/01/22 12:21:11;;;;;;;0.93;0.68;;;;;;;;;;5029147;28;20037;-75
2024/01/22 12:23:38;;;;;;;0.63;0.60;;;;;;;;;;5030226;28;20037;-75
2024/01/22 12:26:10;;;;;;;0.80;0.80;;;;;;;;;;5032229;28;20132;-75
2024/01/22 12:28:35;;;;;;;1.88;1.10;;;;;;;;;;5024149;28;20103;-75
2024/01/22 12:31:02;;;;;;;0.85;0.80;;;;;;;;;;5033656;28;20037;-75
2024/01/22 12:33:30;;;;;;;1.00;0.80;;;;;;;;;;5031223;28;22438;-75
2024/01/22 12:36:07;;;;;;;1.05;0.98;;;;;;;;;;5034128;28;20605;-75
2024/01/22 12:38:35;;;;;;;1.42;0.90;;;;;;;;;;5034280;28;20580;-75
2024/01/22 12:41:04;;;;;;;0.77;0.65;;;;;;;;;;5032294;28;20045;-75
2024/01/22 12:43:29;;;;;;;1.50;0.57;;;;;;;;;;5028897;28;20092;-75
2024/01/22 12:46:07;;;;;;;0.90;0.68;;;;;;;;;;5003939;28;20042;-75
2024/01/22 12:48:33;;;;;;;1.02;0.80;;;;;;;;;;5030896;28;20449;-75
2024/01/22 12:50:59;;;;;;;1.13;0.63;;;;;;;;;;5029652;28;20433;-76
2024/01/22 12:53:24;;;;;;;0.60;0.60;;;;;;;;;;5028670;28;20048;-75
2024/01/22 12:55:49;;;;;;;2.10;0.80;;;;;;;;;;5031720;28;20775;-75
2024/01/22 12:58:15;;;;;;;1.25;0.38;;;;;;;;;;5018570;28;20657;-75
2024/01/22 13:00:40;;;;;;;0.73;0.73;;;;;;;;;;5029519;28;20107;-75
2024/01/22 13:03:05;;;;;;;1.60;0.90;;;;;;;;;;5030134;28;20119;-76
2024/01/22 13:05:31;;;;;;;0.68;0.68;;;;;;;;;;5024163;28;20030;-75
2024/01/22 13:07:56;;;;;;;3.08;1.00;;;;;;;;;;5033038;28;20037;-75
2024/01/22 13:10:22;;;;;;;2.05;1.00;;;;;;;;;;5032930;28;20541;-76
2024/01/22 13:12:47;;;;;;;0.80;0.80;;;;;;;;;;5022946;28;20633;-75
2024/01/22 13:15:13;;;;;;;1.13;0.70;;;;;;;;;;5033461;28;20086;-76
2024/01/22 13:17:38;;;;;;;0.70;0.70;;;;;;;;;;5038062;28;20045;-75
2024/01/22 13:20:06;;;;;;;0.93;0.63;;;;;;;;;;5036888;28;20048;-75
2024/01/22 13:22:31;;;;;;;3.33;0.88;;;;;;;;;;5029158;28;20052;-75
2024/01/22 13:24:56;;;;;;;1.25;0.90;;;;;;;;;;5034143;28;20405;-75
2024/01/22 13:27:22;;;;;;;0.85;0.60;;;;;;;;;;5016079;28;20063;-75
2024/01/22 13:29:47;;;;;;;0.60;0.60;;;;;;;;;;5026535;28;20056;-75
2024/01/22 13:32:13;;;;;;;0.60;0.60;;;;;;;;;;5033354;28;20049;-75
2024/01/22 13:34:38;;;;;;;0.45;0.30;;;;;;;;;;5025564;28;20521;-75
2024/01/22 13:37:04;;;;;;;0.95;0.60;;;;;;;;;;5034497;28;20041;-75
2024/01/22 13:39:29;;;;;;;0.85;0.75;;;;;;;;;;5035291;28;20752;-75
2024/01/22 13:41:54;;;;;;;0.50;0.50;;;;;;;;;;5024808;28;20173;-75
2024/01/22 13:44:20;;;;;;;0.95;0.82;;;;;;;;;;5038091;28;20071;-75
2024/01/22 13:46:45;;;;;;;0.50;0.50;;;;;;;;;;5027499;28;20501;-76
2024/01/22 13:49:11;;;;;;;0.50;0.50;;;;;;;;;;5020000;28;20048;-75
2024/01/22 13:51:36;;;;;;;0.50;0.50;;;;;;;;;;5034654;28;20122;-75
2024/01/22 13:54:02;;;;;;;0.52;0.52;;;;;;;;;;5026450;28;20459;-75
2024/01/22 13:56:28;;;;;;;1.23;0.65;;;;;;;;;;5022256;28;20051;-75
2024/01/22 13:58:54;;;;;;;0.65;0.50;;;;;;;;;;5014250;28;20083;-75
2024/01/22 14:01:19;;;;;;;0.60;0.52;;;;;;;;;;5036506;28;20056;-75
2024/01/22 14:03:45;;;;;;;0.73;0.60;;;;;;;;;;5030019;28;20600;-76
2024/01/22 14:06:10;;;;;;;2.40;0.80;;;;;;;;;;5036671;28;20056;-75
2024/01/22 14:08:35;;;;;;;0.65;0.60;;;;;;;;;;5030886;28;20743;-75
2024/01/22 14:11:01;;;;;;;0.50;0.50;;;;;;;;;;5021192;28;20037;-75
2024/01/22 14:13:26;;;;;;;1.25;0.52;;;;;;;;;;5032381;28;20493;-75
2024/01/22 14:15:52;;;;;;;0.50;0.50;;;;;;;;;;5035196;28;20417;-75
2024/01/22 14:18:19;;;;;;;1.48;0.45;;;;;;;;;;5036993;28;20060;-75
2024/01/22 14:20:46;;;;;;;0.47;0.47;;;;;;;;;;5033494;28;20037;-75
2024/01/22 14:23:11;;;;;;;0.52;0.52;;;;;;;;;;5037181;28;20852;-75
2024/01/22 14:25:36;;;;;;;0.40;0.40;;;;;;;;;;5015851;28;20107;-75
2024/01/22 14:28:02;;;;;;;0.50;0.50;;;;;;;;;;5033997;28;20061;-75
2024/01/22 14:30:28;;;;;;;2.20;1.00;;;;;;;;;;5025371;28;20394;-75
2024/01/22 14:32:53;;;;;;;0.20;0.20;;;;;;;;;;5036386;28;20583;-75
2024/01/22 14:35:21;;;;;;;0.40;0.40;;;;;;;;;;5035602;28;20037;-75
2024/01/22 14:37:48;;;;;;;0.80;0.75;;;;;;;;;;5030431;28;20422;-75
2024/01/22 14:40:14;;;;;;;0.60;0.57;;;;;;;;;;5011998;28;20044;-75